Wednesday, September 03, 2014
07:05 UTC
  |  Log In   |  Register Free
Airport Search:

South Alabama Regional At Bill Benton Field Airport
(79J)

South Alabama Regional At Bill Benton Field Airport Diagram
No Airport Diagram Available

FAA data valid effective July 24, 2014 until September 18, 2014 (unless otherwise noted).

 
 
 
 
 
 
 
 
 
 
 
 
 
 

Current Aviation Weather for South Alabama Regional At Bill Benton Field Airport (79J)

The most recent METAR observation for KLOR was updated at: 0553 UTC
METAR Summary (Translated METAR)
KLOR
030553Z AUTO 08003KT 10SM BKN022 OVC055 26/23 A3005 RMK AO2 SLP171 T02560228 10289 20239 53006 TSNO $
KOZR
(5.2 nm SE from KLOR)
030558Z AUTO VRB04KT 10SM BKN026 BKN046 OVC060 26/23 A3006 RMK AO2 CIG 026V060 SLP178 53007 RVRNO $
TAF Summary (Translated TAF)
KOZR
(5.2 nm SE from KLOR)
0305/0406 26004KT 9999 BKN045 QNH2998INS BECMG 0305/0306 07009KT 9999 VCTS SCT030 BKN045CB QNH3000INS BECMG 0307/0308 22006KT 9999 NSW SCT025 BKN035 QNH3000INS TEMPO 0320/0401 VRB15G20KT 6000 -TSRA OVC035CB BECMG 0405/0406 VRB06KT 8000 BR FEW016 QNH3001INS TX32/0318Z TN24/0406Z AMD 030514
KDHN
(15.6 nm SE from KLOR)
030520Z 0306/0406 VRB06KT P6SM VCTS SCT015 BKN025CB OVC050 TEMPO 0306/0308 VRB15G25KT 2SM TSRA SCT008 BKN015CB FM030800 34003KT P6SM SCT120 OVC200 TEMPO 0309/0313 4SM BR FM031500 35004KT P6SM SCT050 FM031900 20006KT P6SM VCTS SCT035CB BKN060 TEMPO 0323/0403 VRB15G25KT 2SM TSRA SCT020CB BKN035 FM040400 VRB03KT P6SM VCSH SCT100 BKN250
  Airport Weather Conditions for 79J

Current weather conditions are
not available for 79J


The nearest NOAA weather station
is at CEW, (32.5 nm SW from 79J)
  
 Current Weather at CEW
74° F
Fair
North winds at 0.0 mph
CEW NOAA Radar

Pressure: 30.04 in
Humidity: 94%
Wind: Calm
Dew Point: 72.0°F
Visibility: 9.00 mi


Airport Weather Forecast for 79J

Translated METAR and TAF for KLOR
Translated METAR for KLOR (0659 UTC 03 September 2014)
found at http://aviationweather.gov/adds/metars/
 
METAR text: KLOR 030653Z AUTO 16006KT 10SM -RA FEW013 BKN024 OVC029 24/22 A3005 RMK AO2 RAB34 SLP172 P0001 T02390217 TSNO $
Conditions at: KLOR (LOWE AHP/FT. RUC, AL, US) observed 0653 UTC 03 September 2014
Temperature: 23.9°C (75°F)
Dewpoint: 21.7°C (71°F) [RH = 88%]
Pressure (altimeter): 30.05 inches Hg (1017.7 mb)
[Sea-level pressure: 1017.2 mb]
Winds: from the SSE (160 degrees) at 7 MPH (6 knots; 3.1 m/s)
Visibility: 10 or more miles (16+ km)
Ceiling: 2400 feet AGL
Clouds: few clouds at 1300 feet AGL
broken clouds at 2400 feet AGL
overcast cloud deck at 2900 feet AGL
Weather: -RA  (light rain)
SOME DATA ABOVE MAY BE INACCURATE!!!
"$" is an indication the sensor requires maintenance
Translated TAF for KLOR

There is no translated TAF available for this airport

Find All Airport Services Find A Hotel Find A Rental Car Find A Golf Course Find A Restaurant $100 Hamburger



FBO's on the Field
FBO Company Facility Photos Services Transportation Aviation Fuel Prices: Prices include tax
Catering Weather Repair Courtesy Rental Type 100LL JetA JetA+ MOGAS 8087
 
South Alabama Regional Airport

This FBO has not yet been rated
FS:Independent
Last Updated: Aug-04
Login to update fuel prices
SS:
Contact South Alabama Regional AirportMore FBO Information
 
Add another FBO Facility Photos Catering Weather Repair Courtesy Rental Type 100LL JetA JetA+ MOGAS 8087
Services Transportation Aviation Fuel Prices: Prices include tax


GlobalAir.com Airport Resource Center model-print
model-print
model-print
model-print